Time;durP1;ratioP1;P1;durP2;ratioP2;P2;SDS_P1;SDS_P2;PMS_P1;PMS_P2;Temp;Humidity;BMP_temperature;BMP_pressure;BME280_temperature;BME280_humidity;BME280_pressure;Samples;Min_cycle;Max_cycle;Signal;HPM_P1;HPM_P2
2022/08/08 00:01:34;;;;;;;1.30;0.88;;;19.90;67.70;;;;;;4957296;28;20396;-46
2022/08/08 00:04:29;;;;;;;2.50;0.57;;;19.90;67.70;;;;;;4957008;28;20043;-47
2022/08/08 00:07:14;;;;;;;1.98;0.80;;;19.80;67.90;;;;;;4957184;28;20472;-47
2022/08/08 00:09:49;;;;;;;11.02;8.38;;;19.80;68.00;;;;;;4956011;29;20054;-44
2022/08/08 00:12:19;;;;;;;32.38;20.83;;;19.80;68.20;;;;;;4956732;28;20030;-42
2022/08/08 00:14:52;;;;;;;3.63;2.70;;;19.70;68.60;;;;;;4956930;28;20023;-44
2022/08/08 00:17:41;;;;;;;2.42;0.65;;;19.70;68.90;;;;;;4956878;28;20110;-45
2022/08/08 00:20:09;;;;;;;2.13;1.60;;;19.70;68.80;;;;;;4956892;28;20027;-43
2022/08/08 00:22:50;;;;;;;1.95;0.50;;;19.60;69.20;;;;;;4956566;28;20082;-47
2022/08/08 00:25:30;;;;;;;2.83;0.70;;;19.60;69.40;;;;;;4956615;28;20396;-45
2022/08/08 00:27:59;;;;;;;3.47;0.63;;;19.50;69.50;;;;;;4955794;28;20110;-45
2022/08/08 00:30:30;;;;;;;5.03;0.80;;;19.60;69.50;;;;;;4956755;28;20023;-47
2022/08/08 00:33:11;;;;;;;1.77;0.60;;;19.60;69.60;;;;;;4956455;28;20510;-44
2022/08/08 00:35:48;;;;;;;0.70;0.70;;;19.50;69.80;;;;;;4956795;28;20118;-43
2022/08/08 00:38:39;;;;;;;0.77;0.60;;;19.60;69.70;;;;;;4956354;28;20094;-42
2022/08/08 00:41:22;;;;;;;0.80;0.77;;;19.50;70.00;;;;;;4956509;28;20054;-45
2022/08/08 00:44:05;;;;;;;1.67;0.63;;;19.50;70.10;;;;;;4955324;29;20055;-43
2022/08/08 00:47:01;;;;;;;1.23;0.77;;;19.40;70.30;;;;;;4956482;28;20038;-44
2022/08/08 00:49:31;;;;;;;1.63;1.00;;;19.50;70.50;;;;;;4955792;28;20500;-45
2022/08/08 00:52:11;;;;;;;0.68;0.68;;;19.40;70.60;;;;;;4955807;28;20476;-44
2022/08/08 00:55:14;;;;;;;0.85;0.52;;;19.40;70.80;;;;;;4956245;28;20036;-44
2022/08/08 00:58:11;;;;;;;2.47;0.68;;;19.30;71.10;;;;;;4956106;28;20027;-44
2022/08/08 01:00:49;;;;;;;2.00;0.88;;;19.10;71.50;;;;;;4956123;28;20445;-43
2022/08/08 01:03:34;;;;;;;10.90;0.90;;;19.20;71.50;;;;;;4955768;28;20031;-43
2022/08/08 01:06:35;;;;;;;3.72;0.90;;;19.10;71.60;;;;;;4956310;28;20563;-43
2022/08/08 01:09:20;;;;;;;3.40;0.70;;;19.00;71.70;;;;;;4934345;29;20044;-42
2022/08/08 01:12:06;;;;;;;0.60;0.50;;;19.10;72.00;;;;;;4953061;28;20086;-42
2022/08/08 01:14:55;;;;;;;0.60;0.60;;;19.00;72.10;;;;;;4955771;28;20103;-43
2022/08/08 01:17:33;;;;;;;1.15;0.70;;;18.90;72.20;;;;;;4954509;29;20027;-45
2022/08/08 01:20:20;;;;;;;5.65;0.90;;;18.90;72.30;;;;;;4954533;28;20556;-45
2022/08/08 01:23:30;;;;;;;2.40;0.70;;;18.90;72.30;;;;;;4954021;28;20054;-43
2022/08/08 01:26:14;;;;;;;0.52;0.52;;;18.90;72.40;;;;;;4933975;29;20107;-48
2022/08/08 01:28:58;;;;;;;1.75;0.73;;;18.80;72.60;;;;;;4933831;29;20049;-43
2022/08/08 01:31:58;;;;;;;0.68;0.68;;;18.90;72.60;;;;;;4949198;29;20035;-45
2022/08/08 01:34:44;;;;;;;2.00;0.80;;;18.90;72.70;;;;;;4955590;28;20386;-45
2022/08/08 01:37:47;;;;;;;1.38;0.63;;;18.80;73.00;;;;;;4954109;28;20170;-46
2022/08/08 01:40:27;;;;;;;0.60;0.60;;;18.70;73.00;;;;;;4955522;28;20417;-44
2022/08/08 01:43:03;;;;;;;0.60;0.60;;;18.70;73.10;;;;;;4955100;28;20028;-46
2022/08/08 01:45:55;;;;;;;2.20;0.40;;;18.60;73.60;;;;;;4955745;28;20023;-43
2022/08/08 01:48:45;;;;;;;1.30;0.63;;;18.50;73.60;;;;;;4955199;28;20089;-44
2022/08/08 01:51:39;;;;;;;0.85;0.73;;;18.50;73.70;;;;;;4955195;28;20094;-46
2022/08/08 01:54:16;;;;;;;0.82;0.68;;;18.50;73.60;;;;;;4954637;28;20023;-42
2022/08/08 01:57:21;;;;;;;1.35;0.60;;;18.60;73.80;;;;;;4955345;28;20106;-43
2022/08/08 02:00:03;;;;;;;1.05;0.90;;;18.60;73.80;;;;;;4954898;28;20098;-44
2022/08/08 02:02:48;;;;;;;1.85;1.00;;;18.50;74.00;;;;;;4954603;28;20031;-43
2022/08/08 02:05:44;;;;;;;1.75;0.60;;;18.40;74.20;;;;;;4954919;28;20066;-42
2022/08/08 02:08:37;;;;;;;1.27;0.60;;;18.30;74.40;;;;;;4954660;28;20027;-45
2022/08/08 02:11:18;;;;;;;0.60;0.50;;;18.40;74.60;;;;;;4954519;28;20392;-46
2022/08/08 02:13:56;;;;;;;2.97;0.80;;;18.40;74.70;;;;;;4954463;28;20120;-47
2022/08/08 02:16:34;;;;;;;1.63;0.80;;;18.40;74.80;;;;;;4954801;28;20339;-43
2022/08/08 02:19:25;;;;;;;2.40;1.05;;;18.30;74.90;;;;;;4955138;28;20031;-44
2022/08/08 02:25:13;;;;;;;0.60;0.60;;;18.30;75.70;;;;;;4954832;29;20073;-45
2022/08/08 02:27:57;;;;;;;2.45;1.00;;;18.30;75.10;;;;;;4954419;28;20469;-43
2022/08/08 02:30:33;;;;;;;0.73;0.73;;;18.20;75.30;;;;;;4954791;28;20066;-45
2022/08/08 02:33:31;;;;;;;1.27;0.60;;;18.20;75.50;;;;;;4954261;28;20028;-43
2022/08/08 02:36:29;;;;;;;0.60;0.60;;;18.20;75.70;;;;;;4953894;29;20412;-43
2022/08/08 02:39:35;;;;;;;2.05;0.90;;;18.10;75.80;;;;;;4954108;28;20567;-46
2022/08/08 02:42:19;;;;;;;4.10;0.70;;;18.10;75.90;;;;;;4932378;29;20529;-44
2022/08/08 02:45:04;;;;;;;0.77;0.60;;;18.10;76.10;;;;;;4952703;28;20035;-42
2022/08/08 02:48:06;;;;;;;1.00;0.80;;;18.10;76.20;;;;;;4954111;28;20027;-44
2022/08/08 02:51:09;;;;;;;0.60;0.60;;;18.10;76.40;;;;;;4954146;28;20101;-43
2022/08/08 02:54:01;;;;;;;1.60;0.90;;;18.00;76.70;;;;;;4953789;28;20056;-44
2022/08/08 02:57:04;;;;;;;0.55;0.50;;;18.00;76.90;;;;;;4954584;28;20032;-44
2022/08/08 02:59:41;;;;;;;2.78;0.90;;;17.90;77.00;;;;;;4953810;28;20028;-46
2022/08/08 03:02:35;;;;;;;0.70;0.70;;;17.90;77.10;;;;;;4953485;28;20027;-43
2022/08/08 03:05:28;;;;;;;3.13;0.82;;;17.90;77.20;;;;;;4953911;28;20496;-45
2022/08/08 03:08:12;;;;;;;1.20;0.70;;;17.90;77.30;;;;;;4953673;28;20031;-43
2022/08/08 03:10:59;;;;;;;0.80;0.80;;;17.80;77.40;;;;;;4953827;28;20020;-43
2022/08/08 03:13:51;;;;;;;2.22;0.68;;;17.80;77.60;;;;;;4952725;29;20020;-44
2022/08/08 03:16:24;;;;;;;4.00;0.80;;;17.80;77.80;;;;;;4945633;28;20039;-46
2022/08/08 03:18:53;;;;;;;1.05;0.70;;;17.80;77.80;;;;;;4952323;29;20124;-43
2022/08/08 03:21:18;;;;;;;3.70;0.70;;;17.80;77.80;;;;;;4953630;28;20059;-45
2022/08/08 03:23:44;;;;;;;0.93;0.70;;;17.80;77.90;;;;;;4953264;28;20035;-44
2022/08/08 03:26:13;;;;;;;2.30;0.95;;;17.70;78.00;;;;;;4953545;28;20063;-43
2022/08/08 03:28:46;;;;;;;0.85;0.68;;;17.70;78.00;;;;;;4953433;28;20039;-42
2022/08/08 03:33:56;;;;;;;2.00;0.70;;;17.70;78.30;;;;;;4953128;29;20070;-44
2022/08/08 03:36:23;;;;;;;1.55;0.80;;;17.70;78.50;;;;;;4953647;28;20023;-44
2022/08/08 03:38:50;;;;;;;5.88;0.95;;;17.70;78.50;;;;;;4953510;28;20473;-42
2022/08/08 03:41:16;;;;;;;1.08;0.70;;;17.60;78.50;;;;;;4953546;28;20045;-43
2022/08/08 03:43:52;;;;;;;1.45;0.77;;;17.70;78.50;;;;;;4953535;28;20027;-42
2022/08/08 03:46:18;;;;;;;3.25;0.88;;;17.60;78.80;;;;;;4952512;28;20027;-43
2022/08/08 03:48:54;;;;;;;3.35;0.90;;;17.60;79.00;;;;;;4953201;28;20078;-46
2022/08/08 03:51:19;;;;;;;1.02;0.85;;;17.60;79.10;;;;;;4953181;28;20032;-42
2022/08/08 03:53:45;;;;;;;0.80;0.80;;;17.50;79.20;;;;;;4953017;28;20030;-43
2022/08/08 03:56:10;;;;;;;0.90;0.85;;;17.60;79.20;;;;;;4953217;28;20035;-44
2022/08/08 03:58:36;;;;;;;3.15;1.15;;;17.60;79.40;;;;;;4953169;28;20500;-42
2022/08/08 04:01:04;;;;;;;3.22;0.75;;;17.60;79.40;;;;;;4953092;28;20037;-45
2022/08/08 04:03:36;;;;;;;3.65;0.75;;;17.60;79.50;;;;;;4952979;28;20043;-43
2022/08/08 04:06:06;;;;;;;1.08;0.70;;;17.60;79.60;;;;;;4953227;28;20027;-47
2022/08/08 04:08:35;;;;;;;0.85;0.70;;;17.60;79.70;;;;;;4952850;28;20409;-43
2022/08/08 04:11:02;;;;;;;2.20;0.70;;;17.50;79.90;;;;;;4952919;28;20034;-44
2022/08/08 04:13:28;;;;;;;0.60;0.60;;;17.50;80.10;;;;;;4952855;28;20559;-43
2022/08/08 04:15:53;;;;;;;0.70;0.70;;;17.40;80.20;;;;;;4953256;28;20063;-46
2022/08/08 04:18:19;;;;;;;1.25;1.00;;;17.50;80.30;;;;;;4952953;28;20038;-48
2022/08/08 04:20:44;;;;;;;5.53;1.15;;;17.50;80.30;;;;;;4953018;28;20027;-44
2022/08/08 04:23:10;;;;;;;2.03;0.70;;;17.40;80.40;;;;;;4952544;28;20535;-45
2022/08/08 04:25:35;;;;;;;0.80;0.80;;;17.40;80.70;;;;;;4953056;28;20027;-47
2022/08/08 04:28:01;;;;;;;1.38;0.85;;;17.50;80.70;;;;;;4952883;28;20035;-44
2022/08/08 04:30:27;;;;;;;3.38;0.82;;;17.40;81.00;;;;;;4953090;28;20503;-43
2022/08/08 04:32:53;;;;;;;5.05;0.90;;;17.40;81.00;;;;;;4952655;28;20023;-43
2022/08/08 04:35:18;;;;;;;2.03;0.75;;;17.30;81.20;;;;;;4952826;28;20543;-43
2022/08/08 04:37:44;;;;;;;0.70;0.70;;;17.40;81.20;;;;;;4952626;28;20118;-46
2022/08/08 04:40:10;;;;;;;0.93;0.82;;;17.40;81.40;;;;;;4954024;28;20183;-42
2022/08/08 04:42:36;;;;;;;0.85;0.70;;;17.30;81.50;;;;;;4952526;28;20063;-43
2022/08/08 04:45:03;;;;;;;1.90;1.00;;;17.30;81.60;;;;;;4952873;28;20083;-44
2022/08/08 04:47:28;;;;;;;2.55;0.70;;;17.30;81.90;;;;;;4956191;28;20489;-44
2022/08/08 04:49:54;;;;;;;2.90;0.90;;;17.40;81.90;;;;;;4956044;28;20050;-46
2022/08/08 04:52:19;;;;;;;9.25;1.00;;;17.40;82.10;;;;;;4955733;28;20031;-43
2022/08/08 04:54:45;;;;;;;1.55;0.80;;;17.40;82.20;;;;;;4956330;28;20039;-44
2022/08/08 04:57:10;;;;;;;3.90;0.90;;;17.40;82.50;;;;;;4956190;28;20095;-43
2022/08/08 04:59:37;;;;;;;1.05;0.70;;;17.50;82.10;;;;;;4954477;28;20035;-45
2022/08/08 05:02:03;;;;;;;1.85;0.77;;;17.60;81.80;;;;;;4955575;28;20117;-44
2022/08/08 05:04:28;;;;;;;2.72;0.75;;;17.80;81.60;;;;;;4955878;28;20067;-45
2022/08/08 05:06:54;;;;;;;1.23;0.80;;;18.00;81.30;;;;;;4955715;28;20082;-42
2022/08/08 05:09:19;;;;;;;10.35;0.90;;;18.10;80.90;;;;;;4955833;28;20496;-45
2022/08/08 05:11:45;;;;;;;1.30;0.98;;;18.20;80.80;;;;;;4955625;28;20031;-41
2022/08/08 05:14:11;;;;;;;2.90;1.27;;;18.40;80.80;;;;;;4954275;28;20117;-43
2022/08/08 05:16:36;;;;;;;4.82;1.10;;;18.60;80.30;;;;;;4954421;29;20067;-42
2022/08/08 05:19:02;;;;;;;1.52;0.70;;;18.70;80.30;;;;;;4955469;28;20157;-45
2022/08/08 05:21:28;;;;;;;2.50;0.93;;;18.90;79.70;;;;;;4955388;28;20119;-42
2022/08/08 05:23:53;;;;;;;3.63;1.00;;;19.10;78.80;;;;;;4955224;28;20400;-46
2022/08/08 05:26:21;;;;;;;4.05;0.90;;;19.20;78.30;;;;;;4955501;28;20031;-43
2022/08/08 05:28:47;;;;;;;1.60;1.10;;;19.30;77.90;;;;;;4955297;28;20027;-42
2022/08/08 05:31:12;;;;;;;4.13;1.02;;;19.50;77.30;;;;;;4955465;28;20365;-43
2022/08/08 05:33:38;;;;;;;3.35;0.88;;;19.60;77.40;;;;;;4955025;28;20030;-45
2022/08/08 05:36:04;;;;;;;5.45;0.90;;;19.60;77.30;;;;;;4955239;28;20023;-45
2022/08/08 05:38:35;;;;;;;2.63;1.15;;;19.80;77.30;;;;;;4955258;28;20031;-47
2022/08/08 05:41:03;;;;;;;0.82;0.80;;;20.00;76.20;;;;;;4955489;28;20433;-43
2022/08/08 05:43:31;;;;;;;1.52;0.80;;;20.10;75.80;;;;;;4954814;28;20054;-46
2022/08/08 05:46:04;;;;;;;3.92;0.93;;;20.20;75.80;;;;;;4955188;28;20047;-43
2022/08/08 05:48:33;;;;;;;1.10;0.75;;;20.40;75.30;;;;;;4954568;28;20074;-43
2022/08/08 05:50:59;;;;;;;1.10;1.08;;;20.70;74.70;;;;;;4955025;28;20392;-43
2022/08/08 05:53:24;;;;;;;2.15;0.90;;;20.80;74.30;;;;;;4954681;28;20031;-43
2022/08/08 05:55:55;;;;;;;1.65;0.70;;;20.90;74.50;;;;;;4954968;28;20055;-43
2022/08/08 05:58:27;;;;;;;3.78;0.90;;;21.20;74.20;;;;;;4954438;28;20042;-43
2022/08/08 06:00:55;;;;;;;3.60;0.80;;;21.50;73.40;;;;;;4954905;28;20051;-45
2022/08/08 06:03:22;;;;;;;3.47;0.82;;;21.80;72.50;;;;;;4954622;28;20038;-46
2022/08/08 06:05:49;;;;;;;0.77;0.57;;;21.90;71.30;;;;;;4954773;28;20023;-44
2022/08/08 06:08:26;;;;;;;1.60;0.70;;;22.00;71.40;;;;;;4954459;28;20382;-42
2022/08/08 06:10:53;;;;;;;1.02;0.80;;;22.20;70.80;;;;;;4954584;28;20102;-43
2022/08/08 06:13:19;;;;;;;4.13;0.93;;;22.40;70.10;;;;;;4954914;28;20020;-43
2022/08/08 06:15:48;;;;;;;1.70;0.80;;;22.60;70.40;;;;;;4954842;28;20374;-44
2022/08/08 06:18:15;;;;;;;2.15;0.85;;;23.00;69.70;;;;;;4950686;28;20519;-43
2022/08/08 06:20:42;;;;;;;0.82;0.73;;;23.20;68.90;;;;;;4939745;29;20528;-43
2022/08/08 06:23:07;;;;;;;1.85;0.75;;;23.40;68.20;;;;;;4935416;29;20027;-43
2022/08/08 06:25:35;;;;;;;1.00;0.77;;;23.70;67.30;;;;;;4935291;29;20094;-43
2022/08/08 06:28:06;;;;;;;2.28;0.70;;;23.80;67.00;;;;;;4935046;29;20166;-44
2022/08/08 06:30:34;;;;;;;4.63;0.60;;;23.70;67.30;;;;;;4935008;29;20026;-42
2022/08/08 06:33:02;;;;;;;4.15;0.88;;;23.80;67.20;;;;;;4934323;29;20028;-44
2022/08/08 06:35:30;;;;;;;2.03;1.10;;;24.20;66.40;;;;;;4933807;29;20028;-43
2022/08/08 06:37:59;;;;;;;4.03;1.40;;;24.40;66.80;;;;;;4934764;29;20082;-45
2022/08/08 06:40:28;;;;;;;3.55;1.13;;;24.70;65.80;;;;;;4934961;29;20114;-47
2022/08/08 06:43:04;;;;;;;1.75;1.08;;;24.80;66.00;;;;;;4934869;29;20028;-43
2022/08/08 06:45:32;;;;;;;5.68;0.88;;;25.20;65.20;;;;;;4934760;29;20079;-44
2022/08/08 06:47:59;;;;;;;2.90;0.90;;;25.90;63.50;;;;;;4934640;29;20024;-44
2022/08/08 06:50:29;;;;;;;1.48;0.75;;;26.20;62.50;;;;;;4934485;29;20082;-46
2022/08/08 06:52:55;;;;;;;3.47;0.80;;;26.20;62.10;;;;;;4934128;29;20023;-43
2022/08/08 06:55:21;;;;;;;5.70;1.33;;;26.20;61.70;;;;;;4933194;29;20047;-47
2022/08/08 06:57:47;;;;;;;1.95;0.68;;;26.30;62.60;;;;;;4934439;29;20500;-46
2022/08/08 07:00:13;;;;;;;1.33;0.60;;;26.60;61.30;;;;;;4934734;29;20031;-41
2022/08/08 07:02:43;;;;;;;1.83;0.55;;;26.60;60.00;;;;;;4934332;29;20500;-44
2022/08/08 07:05:13;;;;;;;2.75;1.02;;;26.30;60.80;;;;;;4933310;29;20020;-44
2022/08/08 07:07:51;;;;;;;2.28;0.75;;;26.30;60.90;;;;;;4934167;29;20032;-44
2022/08/08 07:10:22;;;;;;;4.10;0.90;;;26.50;60.90;;;;;;4934136;29;20107;-45
2022/08/08 07:13:05;;;;;;;2.53;0.60;;;26.70;60.20;;;;;;4934050;29;20027;-42
2022/08/08 07:15:37;;;;;;;2.20;0.60;;;27.10;59.40;;;;;;4934378;29;20082;-46
2022/08/08 07:18:06;;;;;;;7.28;1.02;;;27.30;58.90;;;;;;4934336;29;20028;-47
2022/08/08 07:20:36;;;;;;;3.85;0.98;;;27.00;59.00;;;;;;4934340;29;20023;-44
2022/08/08 07:23:05;;;;;;;2.10;1.08;;;27.00;59.60;;;;;;4934021;29;20104;-43
2022/08/08 07:25:37;;;;;;;2.88;0.63;;;27.70;58.60;;;;;;4934307;29;20030;-45
2022/08/08 07:28:12;;;;;;;3.55;0.98;;;27.90;58.40;;;;;;4934197;29;20023;-43
2022/08/08 07:30:39;;;;;;;3.10;0.65;;;28.50;58.10;;;;;;4932819;29;20038;-44
2022/08/08 07:33:05;;;;;;;2.40;0.75;;;29.10;56.90;;;;;;4933401;29;20027;-44
2022/08/08 07:35:32;;;;;;;1.42;0.77;;;29.20;55.90;;;;;;4934162;29;20023;-45
2022/08/08 07:37:59;;;;;;;2.55;0.82;;;29.10;56.90;;;;;;4933720;29;20083;-42
2022/08/08 07:40:26;;;;;;;3.25;0.60;;;29.20;56.50;;;;;;4934021;29;20020;-48
2022/08/08 07:42:53;;;;;;;1.63;0.50;;;29.60;55.60;;;;;;4933651;29;20036;-46
2022/08/08 07:45:20;;;;;;;0.68;0.60;;;30.00;54.60;;;;;;4932648;29;20056;-48
2022/08/08 07:47:46;;;;;;;1.65;0.60;;;29.80;55.20;;;;;;4933677;29;20106;-44
2022/08/08 07:50:12;;;;;;;0.75;0.50;;;30.20;54.50;;;;;;4933887;29;20532;-42
2022/08/08 07:52:40;;;;;;;2.50;0.60;;;30.60;54.00;;;;;;4935290;29;20024;-47
2022/08/08 07:55:12;;;;;;;1.90;0.70;;;30.90;53.10;;;;;;4948519;29;20102;-47
2022/08/08 07:57:58;;;;;;;2.80;0.43;;;30.90;53.30;;;;;;4934611;28;20428;-45
2022/08/08 08:00:32;;;;;;;2.97;0.80;;;30.60;53.50;;;;;;4952163;29;20118;-49
2022/08/08 08:03:12;;;;;;;6.28;0.52;;;30.60;54.90;;;;;;4938477;28;20040;-47
2022/08/08 08:05:47;;;;;;;3.10;0.70;;;30.90;53.90;;;;;;4943488;28;20579;-49
2022/08/08 08:08:37;;;;;;;0.93;0.47;;;31.20;52.60;;;;;;4937926;28;20063;-48
2022/08/08 08:11:06;;;;;;;0.93;0.52;;;30.90;52.90;;;;;;4939105;28;20019;-49
2022/08/08 08:13:36;;;;;;;3.42;0.63;;;31.50;52.80;;;;;;4934769;29;20075;-50
2022/08/08 08:16:07;;;;;;;4.88;0.70;;;31.90;52.20;;;;;;4952886;28;20028;-49
2022/08/08 08:18:44;;;;;;;1.17;0.57;;;31.40;52.10;;;;;;4952497;28;20034;-50
2022/08/08 08:21:10;;;;;;;3.83;0.73;;;30.90;53.00;;;;;;4953464;28;20031;-49
2022/08/08 08:23:36;;;;;;;1.98;1.00;;;30.80;52.80;;;;;;4945898;29;20023;-47
2022/08/08 08:26:03;;;;;;;1.65;0.88;;;30.80;53.30;;;;;;4956594;28;20055;-51
2022/08/08 08:28:28;;;;;;;6.13;0.90;;;31.00;53.00;;;;;;4941765;28;20111;-50
2022/08/08 08:30:57;;;;;;;1.15;0.50;;;31.40;52.80;;;;;;4937717;29;20067;-51
2022/08/08 08:33:22;;;;;;;1.10;0.55;;;31.30;53.00;;;;;;4937132;29;20028;-47
2022/08/08 08:35:48;;;;;;;4.53;0.85;;;31.20;52.60;;;;;;4937221;29;20094;-53
2022/08/08 08:38:14;;;;;;;11.25;4.45;;;31.00;53.30;;;;;;4951568;28;20030;-47
2022/08/08 08:40:40;;;;;;;2.28;0.88;;;31.20;53.10;;;;;;4959181;28;20034;-50
2022/08/08 08:43:07;;;;;;;1.52;0.82;;;30.60;52.80;;;;;;4955970;28;20066;-50
2022/08/08 08:45:37;;;;;;;0.75;0.75;;;30.50;53.50;;;;;;4956211;28;20278;-51
2022/08/08 08:48:03;;;;;;;1.05;0.90;;;30.40;53.80;;;;;;4954895;28;20451;-47
2022/08/08 08:50:30;;;;;;;3.17;0.77;;;30.20;54.10;;;;;;4956080;28;20026;-51
2022/08/08 08:52:58;;;;;;;6.32;1.63;;;30.10;54.50;;;;;;4961480;28;20029;-48
2022/08/08 08:55:25;;;;;;;2.58;0.60;;;29.50;54.70;;;;;;4975500;28;20031;-50
2022/08/08 08:57:54;;;;;;;3.42;0.82;;;28.90;55.60;;;;;;4975142;28;20109;-48
2022/08/08 09:00:20;;;;;;;2.70;0.90;;;28.40;56.30;;;;;;4974900;28;20110;-50
2022/08/08 09:02:49;;;;;;;1.15;0.95;;;27.80;56.60;;;;;;4974867;28;20062;-49
2022/08/08 09:05:15;;;;;;;2.13;0.80;;;27.50;58.40;;;;;;4975437;28;20404;-47
2022/08/08 09:07:43;;;;;;;1.05;0.65;;;27.40;57.80;;;;;;4972142;28;20443;-48
2022/08/08 09:10:13;;;;;;;1.48;0.80;;;27.50;58.60;;;;;;4954013;28;20015;-50
2022/08/08 09:12:42;;;;;;;5.88;0.95;;;27.60;58.50;;;;;;4945589;29;20087;-48
2022/08/08 09:15:08;;;;;;;2.95;0.70;;;27.80;58.00;;;;;;4958130;28;20074;-47
2022/08/08 09:17:33;;;;;;;2.63;0.75;;;28.10;58.00;;;;;;4958742;28;20023;-47
2022/08/08 09:20:00;;;;;;;2.05;0.63;;;28.20;57.00;;;;;;4955709;28;20031;-48
2022/08/08 09:22:26;;;;;;;6.00;0.90;;;28.10;57.80;;;;;;4955386;28;20024;-49
2022/08/08 09:24:53;;;;;;;18.88;13.70;;;28.00;57.50;;;;;;4955900;28;20026;-50
2022/08/08 09:27:20;;;;;;;5.20;3.63;;;27.90;58.40;;;;;;4941616;28;20036;-49
2022/08/08 09:30:09;;;;;;;4.55;1.80;;;27.80;57.60;;;;;;4943923;29;20062;-53
2022/08/08 09:32:41;;;;;;;7.97;0.95;;;27.60;57.20;;;;;;4952495;28;20457;-44
2022/08/08 09:35:19;;;;;;;1.80;0.65;;;27.50;57.40;;;;;;4944136;28;20015;-48
2022/08/08 09:37:53;;;;;;;6.25;1.00;;;27.70;57.50;;;;;;4955312;28;20019;-49
2022/08/08 09:40:21;;;;;;;3.78;0.75;;;27.90;56.80;;;;;;4954413;28;20094;-49
2022/08/08 09:43:07;;;;;;;3.25;0.85;;;28.00;56.30;;;;;;4949471;28;20136;-49
2022/08/08 09:45:59;;;;;;;2.10;0.75;;;28.20;56.30;;;;;;4947418;29;20082;-48
2022/08/08 09:48:30;;;;;;;1.92;0.80;;;28.50;56.00;;;;;;4951908;29;20241;-47
2022/08/08 09:50:57;;;;;;;1.63;0.85;;;28.40;56.20;;;;;;4947794;29;20035;-47
2022/08/08 09:53:32;;;;;;;3.67;0.90;;;28.60;56.30;;;;;;4949731;28;20023;-51
2022/08/08 09:55:59;;;;;;;3.10;0.68;;;28.70;55.90;;;;;;4941106;28;20042;-47
2022/08/08 09:58:27;;;;;;;2.60;0.70;;;28.50;55.50;;;;;;4971126;28;20035;-48
2022/08/08 10:00:57;;;;;;;2.67;0.60;;;28.40;55.30;;;;;;4952125;28;20042;-51
2022/08/08 10:03:27;;;;;;;0.68;0.52;;;28.10;55.40;;;;;;4944676;28;20047;-48
2022/08/08 10:05:52;;;;;;;1.88;0.88;;;27.60;56.50;;;;;;4938256;29;20063;-51
2022/08/08 10:08:18;;;;;;;1.90;0.73;;;27.50;57.00;;;;;;4949401;29;20050;-45
2022/08/08 10:10:45;;;;;;;4.97;0.90;;;27.60;57.20;;;;;;4951360;28;20061;-49
2022/08/08 10:13:31;;;;;;;1.23;0.80;;;27.70;56.50;;;;;;4936921;29;20024;-48
2022/08/08 10:15:59;;;;;;;0.93;0.77;;;27.60;57.30;;;;;;4941861;29;20031;-44
2022/08/08 10:18:27;;;;;;;5.35;0.60;;;27.80;56.70;;;;;;4954702;28;20532;-47
2022/08/08 10:21:00;;;;;;;6.85;0.70;;;27.80;57.00;;;;;;4954376;28;20077;-49
2022/08/08 10:23:42;;;;;;;0.77;0.77;;;27.80;56.00;;;;;;4954229;28;20098;-44
2022/08/08 10:26:15;;;;;;;0.60;0.50;;;27.90;56.20;;;;;;4952290;28;20027;-47
2022/08/08 10:28:54;;;;;;;2.17;0.73;;;27.90;57.00;;;;;;4954137;28;20406;-49
2022/08/08 10:34:18;;;;;;;1.03;0.60;;;27.60;56.60;;;;;;4944551;29;20037;-46
2022/08/08 10:36:44;;;;;;;1.52;0.80;;;27.50;57.10;;;;;;4953760;28;20086;-50
2022/08/08 10:39:16;;;;;;;11.35;1.00;;;27.50;56.70;;;;;;4963993;23;20577;-51
2022/08/08 10:41:44;;;;;;;19.35;13.88;;;27.50;56.80;;;;;;4973543;28;20396;-46
2022/08/08 10:44:11;;;;;;;25.45;17.92;;;27.50;56.60;;;;;;4972426;28;20088;-55
2022/08/08 10:46:37;;;;;;;3.05;1.27;;;27.70;57.00;;;;;;4973074;28;20023;-52
2022/08/08 10:49:02;;;;;;;0.63;0.63;;;27.90;57.30;;;;;;4973383;28;20114;-51
2022/08/08 10:51:34;;;;;;;8.38;0.93;;;27.90;56.60;;;;;;4973252;28;20026;-46
2022/08/08 10:53:59;;;;;;;0.70;0.70;;;27.90;56.70;;;;;;4970542;28;20504;-52
2022/08/08 10:56:31;;;;;;;1.25;0.95;;;27.80;56.70;;;;;;4973138;28;20018;-53
2022/08/08 10:58:57;;;;;;;1.85;0.70;;;27.70;56.60;;;;;;4967351;28;20514;-49
2022/08/08 11:01:28;;;;;;;2.45;1.10;;;27.70;57.30;;;;;;4972936;28;20587;-50
2022/08/08 11:03:57;;;;;;;1.38;0.75;;;27.60;56.40;;;;;;4972708;28;20027;-48
2022/08/08 11:06:28;;;;;;;4.38;0.80;;;27.60;57.10;;;;;;4973224;28;20030;-48
2022/08/08 11:09:08;;;;;;;1.50;0.80;;;27.60;57.00;;;;;;4973056;28;20507;-52
2022/08/08 11:11:42;;;;;;;2.53;0.88;;;27.70;57.50;;;;;;4971564;28;20027;-51
2022/08/08 11:14:09;;;;;;;1.38;0.80;;;27.80;57.40;;;;;;4967941;28;20102;-53
2022/08/08 11:16:38;;;;;;;1.10;0.98;;;27.90;57.20;;;;;;4971428;28;20059;-47
2022/08/08 11:19:05;;;;;;;5.20;0.90;;;27.90;56.30;;;;;;4972791;28;20033;-55
2022/08/08 11:21:44;;;;;;;0.70;0.70;;;27.80;57.40;;;;;;4971592;28;20646;-55
2022/08/08 11:24:10;;;;;;;0.95;0.80;;;27.80;56.60;;;;;;4972742;28;20125;-54
2022/08/08 11:26:39;;;;;;;0.80;0.80;;;27.60;56.80;;;;;;4971331;28;20034;-54
2022/08/08 11:29:06;;;;;;;1.27;0.70;;;27.60;57.60;;;;;;4972554;28;20055;-49
2022/08/08 11:31:47;;;;;;;0.65;0.65;;;27.50;58.20;;;;;;4970927;28;20022;-55
2022/08/08 11:34:15;;;;;;;1.95;0.65;;;27.50;58.20;;;;;;4972387;28;20392;-49
2022/08/08 11:36:42;;;;;;;2.92;0.70;;;27.60;58.10;;;;;;4972628;28;20480;-50
2022/08/08 11:39:10;;;;;;;3.50;0.73;;;27.60;57.30;;;;;;4971043;28;20042;-51
2022/08/08 11:41:36;;;;;;;0.47;0.47;;;27.60;56.80;;;;;;4972607;28;20105;-49
2022/08/08 11:44:04;;;;;;;4.25;0.88;;;27.50;57.10;;;;;;4972405;28;20042;-51
2022/08/08 11:46:33;;;;;;;5.20;0.85;;;27.50;57.40;;;;;;4972805;28;20272;-50
2022/08/08 11:49:06;;;;;;;2.40;0.68;;;27.50;56.90;;;;;;4972645;28;20049;-53
2022/08/08 11:51:33;;;;;;;1.05;0.90;;;27.60;57.50;;;;;;4972556;28;20023;-52
2022/08/08 11:53:59;;;;;;;2.63;0.70;;;27.60;58.30;;;;;;4972436;28;20426;-55
2022/08/08 11:56:30;;;;;;;0.50;0.50;;;27.70;57.20;;;;;;4976309;28;20047;-49
2022/08/08 11:59:05;;;;;;;1.27;0.70;;;27.80;57.30;;;;;;4975748;28;20466;-46
2022/08/08 12:01:31;;;;;;;3.67;0.90;;;27.80;56.60;;;;;;4976903;28;20062;-53
2022/08/08 12:03:57;;;;;;;1.08;0.80;;;27.60;56.90;;;;;;4977587;28;20030;-54
2022/08/08 12:06:23;;;;;;;2.83;0.75;;;27.70;57.30;;;;;;4976393;28;20031;-53
2022/08/08 12:08:49;;;;;;;1.50;0.70;;;27.60;56.60;;;;;;4976192;28;20038;-54
2022/08/08 12:11:17;;;;;;;3.22;0.85;;;27.60;56.10;;;;;;4976234;28;20451;-51
2022/08/08 12:13:44;;;;;;;0.90;0.80;;;27.60;56.30;;;;;;4976017;28;20058;-53
2022/08/08 12:16:12;;;;;;;4.53;0.90;;;27.60;56.40;;;;;;4974870;28;20492;-50
2022/08/08 12:18:48;;;;;;;3.45;0.90;;;27.50;56.90;;;;;;4975971;28;20038;-51
2022/08/08 12:21:25;;;;;;;1.38;0.77;;;27.60;57.50;;;;;;4976052;28;20030;-56
2022/08/08 12:24:06;;;;;;;4.60;0.98;;;27.70;56.60;;;;;;4975836;28;20023;-47
2022/08/08 12:26:37;;;;;;;5.97;0.80;;;27.70;56.80;;;;;;4976056;28;20026;-49
2022/08/08 12:29:25;;;;;;;2.83;0.68;;;27.80;56.40;;;;;;4976266;28;20022;-53
2022/08/08 12:32:16;;;;;;;1.58;0.60;;;27.80;56.30;;;;;;4966059;28;20049;-53
2022/08/08 12:34:55;;;;;;;3.17;1.50;;;27.80;56.20;;;;;;4973039;28;20031;-56
2022/08/08 12:37:27;;;;;;;3.60;0.90;;;27.70;56.10;;;;;;4974460;28;20065;-53
2022/08/08 12:39:53;;;;;;;5.65;0.82;;;27.70;56.70;;;;;;4974525;28;20452;-54
2022/08/08 12:42:19;;;;;;;0.70;0.70;;;27.80;55.40;;;;;;4974006;28;20069;-53
2022/08/08 12:44:45;;;;;;;1.15;1.00;;;27.80;55.70;;;;;;4975733;28;20034;-53
2022/08/08 12:47:11;;;;;;;0.82;0.52;;;27.80;56.00;;;;;;4975535;28;20031;-54
2022/08/08 12:49:38;;;;;;;2.70;0.82;;;27.90;55.60;;;;;;4975369;28;20027;-56
2022/08/08 12:52:06;;;;;;;1.20;0.80;;;27.90;55.20;;;;;;4973824;28;20071;-51
2022/08/08 12:54:35;;;;;;;2.40;0.60;;;27.90;55.80;;;;;;4975373;28;20069;-52
2022/08/08 12:57:14;;;;;;;1.05;0.82;;;28.00;54.60;;;;;;4975323;28;20022;-47
2022/08/08 12:59:50;;;;;;;0.82;0.75;;;27.90;54.90;;;;;;4975373;28;20062;-52
2022/08/08 13:02:24;;;;;;;1.35;0.65;;;27.90;55.90;;;;;;4973668;28;20039;-52
2022/08/08 13:04:52;;;;;;;2.38;1.10;;;27.90;55.30;;;;;;4975230;28;20511;-53
2022/08/08 13:07:18;;;;;;;0.70;0.70;;;28.00;55.20;;;;;;4972759;28;20031;-51
2022/08/08 13:09:57;;;;;;;0.70;0.65;;;28.00;54.90;;;;;;4975216;28;20045;-49
2022/08/08 13:12:28;;;;;;;3.10;0.88;;;28.10;54.70;;;;;;4975320;28;20067;-45
2022/08/08 13:14:55;;;;;;;4.22;0.60;;;28.00;54.80;;;;;;4975560;28;20078;-46
2022/08/08 13:17:26;;;;;;;1.75;0.85;;;28.10;55.80;;;;;;4975051;28;20031;-49
2022/08/08 13:19:55;;;;;;;0.70;0.70;;;28.00;54.80;;;;;;4975192;28;20047;-51
2022/08/08 13:22:22;;;;;;;0.52;0.52;;;28.10;54.10;;;;;;4974891;28;20030;-49
2022/08/08 13:24:47;;;;;;;2.80;0.70;;;28.10;54.70;;;;;;4975043;28;20030;-48